Time;durP1;ratioP1;P1;durP2;ratioP2;P2;SDS_P1;SDS_P2;PMS_P1;PMS_P2;Temp;Humidity;BMP_temperature;BMP_pressure;BME280_temperature;BME280_humidity;BME280_pressure;Samples;Min_cycle;Max_cycle;Signal;HPM_P1;HPM_P2
2023/05/11 00:02:12;;;;;;;8.70;8.00;;;15.40;99.90;;;;;;6274019;28;20502;-63
2023/05/11 00:05:16;;;;;;;8.20;7.60;;;15.40;99.90;;;;;;6273772;28;20470;-63
2023/05/11 00:08:20;;;;;;;8.50;7.90;;;15.40;99.90;;;;;;6273975;28;20467;-63
2023/05/11 00:11:23;;;;;;;9.23;8.43;;;15.40;99.90;;;;;;6273861;28;20466;-63
2023/05/11 00:14:26;;;;;;;8.87;8.17;;;15.40;99.90;;;;;;6273697;28;20485;-63
2023/05/11 00:17:30;;;;;;;10.10;9.30;;;15.30;99.90;;;;;;6273691;28;20463;-63
2023/05/11 00:20:33;;;;;;;8.83;8.10;;;15.30;99.90;;;;;;6275574;28;20466;-63
2023/05/11 00:23:37;;;;;;;9.50;8.70;;;15.30;99.90;;;;;;6276222;28;20473;-63
2023/05/11 00:26:40;;;;;;;8.00;7.40;;;15.20;99.90;;;;;;6278030;28;20764;-63
2023/05/11 00:29:43;;;;;;;8.60;7.90;;;15.20;99.90;;;;;;6279268;28;20485;-63
2023/05/11 00:32:47;;;;;;;8.93;8.13;;;15.20;99.90;;;;;;6279379;28;20477;-63
2023/05/11 00:35:51;;;;;;;8.57;7.87;;;15.20;99.90;;;;;;6279431;28;20484;-63
2023/05/11 00:38:55;;;;;;;8.13;7.43;;;15.10;99.90;;;;;;6279023;28;20968;-63
2023/05/11 00:41:59;;;;;;;8.10;7.20;;;15.10;99.90;;;;;;6278999;28;20989;-63
2023/05/11 00:45:02;;;;;;;8.40;7.60;;;15.10;99.90;;;;;;6278635;28;20485;-64
2023/05/11 00:48:06;;;;;;;7.47;6.93;;;15.00;99.90;;;;;;6278942;28;20481;-63
2023/05/11 00:51:11;;;;;;;8.27;7.50;;;15.00;99.90;;;;;;6278642;28;20473;-63
2023/05/11 00:54:15;;;;;;;9.67;8.13;;;15.00;99.90;;;;;;6278981;28;20515;-63
2023/05/11 00:57:20;;;;;;;8.53;7.73;;;15.00;99.90;;;;;;6278807;28;20462;-63
2023/05/11 01:00:23;;;;;;;7.37;6.87;;;15.00;99.90;;;;;;6278410;28;20437;-63
2023/05/11 01:03:26;;;;;;;8.67;8.03;;;14.90;99.90;;;;;;6278688;28;20436;-63
2023/05/11 01:06:41;;;;;;;10.10;7.60;;;14.90;99.90;;;;;;6277981;28;20523;-63
2023/05/11 01:09:59;;;;;;;7.20;6.60;;;14.90;99.90;;;;;;6277610;28;20462;-63
2023/05/11 01:13:13;;;;;;;7.30;6.70;;;14.90;99.90;;;;;;6267898;28;20474;-63
2023/05/11 01:16:20;;;;;;;6.77;6.13;;;14.90;99.90;;;;;;6276857;28;20976;-63
2023/05/11 01:19:36;;;;;;;6.93;6.00;;;14.90;99.90;;;;;;6276925;28;20793;-63
2023/05/11 01:22:53;;;;;;;7.70;5.67;;;14.90;99.90;;;;;;6276091;28;20486;-63
2023/05/11 01:26:11;;;;;;;6.67;6.07;;;14.90;99.90;;;;;;6277150;28;20970;-63
2023/05/11 01:29:47;;;;;;;6.07;5.57;;;14.90;99.90;;;;;;6277751;28;20500;-63
2023/05/11 01:32:54;;;;;;;5.40;4.90;;;14.90;99.90;;;;;;6276003;28;20470;-63
2023/05/11 01:36:04;;;;;;;6.40;5.90;;;14.90;99.90;;;;;;6274629;28;20473;-63
2023/05/11 01:39:10;;;;;;;6.27;5.73;;;14.90;99.90;;;;;;6273693;28;20969;-63
2023/05/11 01:42:15;;;;;;;6.00;5.50;;;14.80;99.90;;;;;;6275625;28;20470;-63
2023/05/11 01:45:20;;;;;;;6.53;5.40;;;14.80;99.90;;;;;;6275159;28;20458;-63
2023/05/11 01:48:28;;;;;;;5.80;5.30;;;14.80;99.90;;;;;;6276542;28;20426;-63
2023/05/11 01:51:35;;;;;;;8.73;4.67;;;14.80;99.90;;;;;;6275844;28;20965;-63
2023/05/11 01:54:40;;;;;;;7.07;5.07;;;14.80;99.90;;;;;;6276386;28;20462;-63
2023/05/11 01:57:45;;;;;;;6.20;4.70;;;14.70;99.90;;;;;;6276386;28;20477;-63
2023/05/11 02:00:48;;;;;;;6.10;5.50;;;14.80;99.90;;;;;;6275939;28;20966;-63
2023/05/11 02:03:54;;;;;;;5.90;5.37;;;14.70;99.90;;;;;;6275001;28;20474;-63
2023/05/11 02:06:59;;;;;;;5.27;4.87;;;14.70;99.90;;;;;;6275728;28;20462;-63
2023/05/11 02:10:03;;;;;;;5.30;4.90;;;14.70;99.90;;;;;;6276815;28;20985;-63
2023/05/11 02:13:08;;;;;;;5.97;5.47;;;14.70;99.90;;;;;;6276179;28;20470;-63
2023/05/11 02:16:14;;;;;;;8.40;5.63;;;14.70;99.90;;;;;;6271929;28;20551;-63
2023/05/11 02:19:21;;;;;;;7.47;6.07;;;14.70;99.90;;;;;;6276529;28;20481;-63
2023/05/11 02:22:25;;;;;;;4.77;4.43;;;14.70;99.90;;;;;;6273931;28;20477;-63
2023/05/11 02:25:29;;;;;;;6.63;4.73;;;14.70;99.90;;;;;;6276096;28;20508;-63
2023/05/11 02:28:33;;;;;;;5.07;4.67;;;14.70;99.90;;;;;;6276279;28;20524;-62
2023/05/11 02:31:42;;;;;;;6.27;4.67;;;14.60;99.90;;;;;;6276010;28;20473;-62
2023/05/11 02:34:56;;;;;;;5.40;4.57;;;14.60;99.90;;;;;;6274029;28;20466;-64
2023/05/11 02:38:02;;;;;;;6.30;4.93;;;14.60;99.90;;;;;;6276231;28;20478;-63
2023/05/11 02:41:11;;;;;;;5.33;4.83;;;14.60;99.90;;;;;;6276740;28;20469;-63
2023/05/11 02:44:17;;;;;;;4.63;4.23;;;14.60;99.90;;;;;;6278249;28;20478;-63
2023/05/11 02:47:22;;;;;;;4.20;3.90;;;14.60;99.90;;;;;;6275577;28;20485;-63
2023/05/11 02:50:29;;;;;;;5.43;5.00;;;14.60;99.80;;;;;;6276285;28;20620;-63
2023/05/11 02:53:33;;;;;;;4.90;4.50;;;14.60;99.90;;;;;;6276225;28;20466;-63
2023/05/11 02:56:37;;;;;;;5.63;5.03;;;14.60;99.90;;;;;;6275764;28;20492;-63
2023/05/11 02:59:41;;;;;;;6.40;4.60;;;14.60;99.90;;;;;;6275400;28;20466;-63
2023/05/11 03:02:44;;;;;;;6.73;4.73;;;14.60;99.80;;;;;;6275199;28;20988;-63
2023/05/11 03:05:51;;;;;;;5.80;4.67;;;14.60;99.80;;;;;;6275053;28;20545;-63
2023/05/11 03:08:55;;;;;;;7.60;4.50;;;14.50;99.70;;;;;;6275377;28;20484;-63
2023/05/11 03:11:59;;;;;;;4.97;4.30;;;14.60;99.70;;;;;;6275286;28;20981;-63
2023/05/11 03:15:03;;;;;;;5.23;4.83;;;14.50;99.70;;;;;;6274926;28;20965;-63
2023/05/11 03:18:07;;;;;;;6.63;4.43;;;14.50;99.70;;;;;;6275100;28;20780;-63
2023/05/11 03:21:14;;;;;;;4.47;4.07;;;14.50;99.70;;;;;;6275262;28;20477;-63
2023/05/11 03:24:18;;;;;;;4.80;4.40;;;14.50;99.70;;;;;;6272228;28;20474;-63
2023/05/11 03:27:22;;;;;;;5.73;4.60;;;14.50;99.60;;;;;;6275154;28;20462;-63
2023/05/11 03:30:26;;;;;;;9.30;4.30;;;14.40;99.60;;;;;;6274729;28;20945;-63
2023/05/11 03:33:29;;;;;;;5.43;4.93;;;14.50;99.70;;;;;;6274879;28;20898;-63
2023/05/11 03:36:34;;;;;;;5.40;4.10;;;14.40;99.50;;;;;;6275282;28;20474;-63
2023/05/11 03:39:38;;;;;;;5.30;4.80;;;14.40;99.50;;;;;;6274673;28;20804;-63
2023/05/11 03:42:43;;;;;;;4.67;4.10;;;14.50;99.50;;;;;;6274770;28;20482;-63
2023/05/11 03:45:48;;;;;;;5.20;4.70;;;14.50;99.50;;;;;;6274406;28;20482;-63
2023/05/11 03:48:53;;;;;;;5.53;3.73;;;14.50;99.40;;;;;;6274719;28;20508;-63
2023/05/11 03:51:58;;;;;;;4.00;3.70;;;14.50;99.30;;;;;;6274748;28;20949;-63
2023/05/11 03:55:01;;;;;;;6.80;4.27;;;14.50;99.30;;;;;;6274568;28;20526;-63
2023/05/11 03:58:07;;;;;;;4.80;4.40;;;14.50;99.30;;;;;;6273870;28;20474;-63
2023/05/11 04:01:12;;;;;;;4.73;4.23;;;14.50;99.10;;;;;;6274889;28;20478;-63
2023/05/11 04:04:15;;;;;;;4.47;4.07;;;14.60;99.10;;;;;;6274584;28;20489;-63
2023/05/11 04:07:20;;;;;;;3.53;3.27;;;14.60;99.00;;;;;;6274180;28;20546;-63
2023/05/11 04:10:23;;;;;;;4.27;3.87;;;14.60;98.90;;;;;;6274301;28;20465;-63
2023/05/11 04:13:26;;;;;;;4.60;4.13;;;14.60;99.00;;;;;;6274486;28;20469;-63
2023/05/11 04:16:29;;;;;;;4.77;4.20;;;14.60;99.20;;;;;;6274612;28;20481;-64
2023/05/11 04:19:33;;;;;;;4.60;4.13;;;14.60;98.90;;;;;;6274702;28;20473;-63
2023/05/11 04:22:37;;;;;;;4.50;4.10;;;14.70;98.80;;;;;;6274243;28;20466;-63
2023/05/11 04:25:40;;;;;;;6.23;4.13;;;14.60;98.80;;;;;;6264968;28;20474;-63
2023/05/11 04:28:43;;;;;;;4.10;3.80;;;14.70;98.70;;;;;;6274059;28;20474;-63
2023/05/11 04:31:46;;;;;;;4.00;3.60;;;14.70;98.70;;;;;;6274035;28;20485;-63
2023/05/11 04:34:49;;;;;;;4.07;3.77;;;14.60;98.60;;;;;;6273867;28;20478;-63
2023/05/11 04:37:54;;;;;;;5.53;3.53;;;14.60;98.70;;;;;;6274391;28;20496;-63
2023/05/11 04:40:57;;;;;;;3.53;3.30;;;14.70;98.50;;;;;;6273946;28;20466;-63
2023/05/11 04:44:00;;;;;;;6.27;3.60;;;14.70;98.50;;;;;;6273858;28;20485;-63
2023/05/11 04:47:03;;;;;;;3.80;3.30;;;14.70;98.40;;;;;;6274292;28;20474;-62
2023/05/11 04:50:07;;;;;;;5.37;3.97;;;14.70;98.40;;;;;;6273859;28;20493;-63
2023/05/11 04:53:11;;;;;;;4.43;4.13;;;14.70;98.20;;;;;;6273941;28;20470;-62
2023/05/11 04:56:15;;;;;;;3.40;3.13;;;14.70;98.30;;;;;;6273582;28;20569;-62
2023/05/11 04:59:18;;;;;;;6.00;4.83;;;14.70;98.30;;;;;;6273901;28;20477;-62
2023/05/11 05:02:21;;;;;;;6.20;4.33;;;14.70;98.20;;;;;;6280805;28;20989;-62
2023/05/11 05:05:24;;;;;;;4.07;3.77;;;14.80;98.10;;;;;;6285705;28;20814;-62
2023/05/11 05:08:29;;;;;;;5.33;4.07;;;14.80;98.20;;;;;;6274422;28;20480;-62
2023/05/11 05:11:32;;;;;;;5.20;4.20;;;14.80;98.00;;;;;;6278448;28;20484;-62
2023/05/11 05:14:35;;;;;;;5.90;4.03;;;14.80;97.90;;;;;;6277959;28;20481;-62
2023/05/11 05:17:38;;;;;;;5.40;4.90;;;14.80;97.90;;;;;;6278010;28;20474;-62
2023/05/11 05:20:41;;;;;;;4.40;4.07;;;14.80;97.90;;;;;;6277935;28;21016;-62
2023/05/11 05:23:46;;;;;;;5.97;3.90;;;14.90;98.00;;;;;;6278455;28;20470;-63
2023/05/11 05:26:49;;;;;;;4.20;3.80;;;15.00;97.80;;;;;;6277704;28;20477;-63
2023/05/11 05:29:52;;;;;;;5.43;3.70;;;15.00;97.80;;;;;;6273024;28;20926;-62
2023/05/11 05:32:55;;;;;;;4.10;3.70;;;15.00;97.80;;;;;;6277421;28;20488;-62
2023/05/11 05:35:59;;;;;;;6.83;4.43;;;15.00;97.70;;;;;;6277585;28;20973;-63
2023/05/11 05:39:08;;;;;;;3.30;2.97;;;15.10;97.10;;;;;;6277205;28;20474;-63
2023/05/11 05:42:11;;;;;;;4.27;3.87;;;15.10;97.00;;;;;;6277610;28;20466;-62
2023/05/11 05:45:14;;;;;;;4.43;3.60;;;15.10;96.70;;;;;;6276934;28;20929;-63
2023/05/11 05:48:17;;;;;;;4.17;3.30;;;15.00;96.90;;;;;;6276812;28;20937;-62
2023/05/11 05:51:21;;;;;;;3.83;3.53;;;15.00;96.60;;;;;;6277127;28;20442;-62
2023/05/11 05:54:25;;;;;;;4.20;3.80;;;14.90;96.40;;;;;;6276880;28;20442;-63
2023/05/11 05:57:30;;;;;;;4.90;4.40;;;14.90;96.40;;;;;;6276826;28;20481;-63
2023/05/11 06:00:33;;;;;;;5.33;4.63;;;14.90;96.40;;;;;;6276664;28;20452;-63
2023/05/11 06:03:37;;;;;;;4.80;4.40;;;14.90;96.00;;;;;;6277132;28;20879;-63
2023/05/11 06:06:40;;;;;;;5.50;5.00;;;14.80;96.00;;;;;;6276373;28;20563;-63
2023/05/11 06:09:45;;;;;;;4.67;4.10;;;14.80;96.10;;;;;;6276648;28;20797;-63
2023/05/11 06:12:48;;;;;;;4.30;3.97;;;14.80;96.30;;;;;;6276568;28;20470;-63
2023/05/11 06:15:51;;;;;;;4.03;3.73;;;14.90;96.10;;;;;;6276855;28;20470;-63
2023/05/11 06:18:54;;;;;;;4.10;3.80;;;14.80;96.10;;;;;;6277033;28;20771;-63
2023/05/11 06:21:58;;;;;;;5.73;4.70;;;14.90;95.90;;;;;;6275956;28;20980;-63
2023/05/11 06:25:02;;;;;;;4.30;3.90;;;14.80;95.70;;;;;;6276955;28;20470;-64
2023/05/11 06:28:07;;;;;;;4.93;4.40;;;14.90;96.10;;;;;;6276305;28;20805;-64
2023/05/11 06:31:10;;;;;;;5.87;4.70;;;14.80;95.70;;;;;;6276710;28;20527;-63
2023/05/11 06:34:13;;;;;;;4.60;4.20;;;14.90;95.90;;;;;;6271508;28;20513;-63
2023/05/11 06:37:19;;;;;;;7.03;4.33;;;15.00;96.00;;;;;;6276738;28;20486;-63
2023/05/11 06:40:24;;;;;;;8.57;5.00;;;15.00;95.60;;;;;;6276876;28;20466;-63
2023/05/11 06:43:27;;;;;;;6.10;4.10;;;15.00;95.50;;;;;;6276399;28;20470;-63
2023/05/11 06:46:30;;;;;;;6.13;4.60;;;15.10;95.30;;;;;;6275948;28;20469;-63
2023/05/11 06:49:33;;;;;;;7.33;4.17;;;15.00;95.00;;;;;;6276014;28;20954;-63
2023/05/11 06:52:36;;;;;;;7.30;4.90;;;15.10;95.10;;;;;;6275615;28;20485;-64
2023/05/11 06:55:41;;;;;;;5.80;5.20;;;15.00;95.20;;;;;;6275957;28;20478;-64
2023/05/11 06:58:44;;;;;;;5.67;5.27;;;14.90;95.30;;;;;;6275730;28;20470;-64
2023/05/11 07:01:47;;;;;;;6.10;5.50;;;14.90;95.40;;;;;;6275634;28;20462;-64
2023/05/11 07:04:50;;;;;;;4.73;4.23;;;15.00;95.50;;;;;;6275267;28;20481;-64
2023/05/11 07:07:53;;;;;;;4.57;4.20;;;15.00;95.30;;;;;;6275306;28;20547;-63
2023/05/11 07:10:58;;;;;;;6.90;4.70;;;15.10;95.10;;;;;;6275081;28;20477;-63
2023/05/11 07:14:01;;;;;;;5.13;4.50;;;15.00;95.20;;;;;;6274404;28;20466;-63
2023/05/11 07:17:04;;;;;;;5.70;4.70;;;15.00;95.40;;;;;;6274688;28;20516;-65
2023/05/11 07:20:09;;;;;;;5.03;4.57;;;14.90;95.70;;;;;;6274783;28;20469;-65
2023/05/11 07:23:12;;;;;;;10.60;5.40;;;15.00;97.60;;;;;;6274637;28;20477;-66
2023/05/11 07:26:16;;;;;;;5.40;4.53;;;15.00;96.40;;;;;;6274891;28;20473;-66
2023/05/11 07:29:19;;;;;;;5.63;3.90;;;15.00;96.50;;;;;;6281432;28;20466;-66
2023/05/11 07:32:23;;;;;;;6.37;5.10;;;15.00;96.40;;;;;;6274977;28;20478;-67
2023/05/11 07:35:26;;;;;;;4.40;4.07;;;15.10;96.40;;;;;;6274884;28;20897;-67
2023/05/11 07:38:29;;;;;;;4.50;4.10;;;15.30;96.60;;;;;;6273946;28;20563;-67
2023/05/11 07:41:34;;;;;;;9.10;4.20;;;15.30;96.10;;;;;;6271789;28;20473;-67
2023/05/11 07:44:37;;;;;;;5.13;4.60;;;15.40;95.70;;;;;;6273952;28;20465;-67
2023/05/11 07:47:40;;;;;;;5.73;5.13;;;15.30;95.60;;;;;;6274484;28;20470;-68
2023/05/11 07:50:43;;;;;;;8.27;4.00;;;15.30;95.90;;;;;;6274794;28;20472;-67
2023/05/11 07:53:46;;;;;;;5.03;4.53;;;15.30;96.30;;;;;;6274142;28;20805;-67
2023/05/11 07:56:51;;;;;;;4.73;4.33;;;15.30;95.90;;;;;;6274129;28;20804;-67
2023/05/11 07:59:54;;;;;;;5.80;5.30;;;15.30;96.10;;;;;;6273279;28;20474;-67
2023/05/11 08:02:57;;;;;;;4.90;4.50;;;15.40;96.10;;;;;;6273972;28;20466;-67
2023/05/11 08:06:02;;;;;;;5.13;4.57;;;15.30;95.70;;;;;;6272773;28;20553;-67
2023/05/11 08:09:05;;;;;;;5.07;4.50;;;15.30;95.80;;;;;;6271708;28;20643;-67
2023/05/11 08:12:11;;;;;;;5.73;4.83;;;15.30;96.10;;;;;;6272272;28;21013;-67
2023/05/11 08:15:14;;;;;;;7.60;4.67;;;14.90;96.50;;;;;;6272529;28;20466;-67
2023/05/11 08:18:17;;;;;;;7.03;6.33;;;15.00;97.70;;;;;;6272679;28;20484;-67
2023/05/11 08:21:20;;;;;;;5.03;4.63;;;15.10;97.40;;;;;;6270945;28;20533;-68
2023/05/11 08:24:23;;;;;;;5.20;4.70;;;15.10;97.70;;;;;;6271455;28;20748;-67
2023/05/11 08:27:28;;;;;;;6.57;4.90;;;15.20;97.70;;;;;;6271216;28;21053;-67
2023/05/11 08:30:31;;;;;;;5.13;4.63;;;15.10;97.50;;;;;;6273875;28;20921;-67
2023/05/11 08:33:34;;;;;;;5.90;5.30;;;15.10;98.30;;;;;;6274107;28;20504;-67
2023/05/11 08:36:40;;;;;;;6.10;5.50;;;15.10;98.00;;;;;;6274253;28;20537;-67
2023/05/11 08:39:44;;;;;;;5.53;5.10;;;15.10;98.30;;;;;;6269685;28;20462;-67
2023/05/11 08:42:55;;;;;;;5.83;5.23;;;15.20;98.20;;;;;;6273997;28;20462;-67
2023/05/11 08:46:02;;;;;;;7.20;5.87;;;15.20;98.20;;;;;;6278266;28;20489;-67
2023/05/11 08:49:07;;;;;;;8.73;6.23;;;15.20;98.10;;;;;;6279537;28;20474;-67
2023/05/11 08:52:12;;;;;;;5.67;5.17;;;15.20;98.90;;;;;;6279066;28;20474;-67
2023/05/11 08:55:15;;;;;;;5.50;5.00;;;15.20;98.70;;;;;;6279054;28;20556;-66
2023/05/11 08:58:21;;;;;;;5.80;5.20;;;15.30;98.60;;;;;;6278761;28;20549;-67
2023/05/11 09:01:28;;;;;;;6.43;5.83;;;15.40;98.20;;;;;;6278956;28;20474;-67
2023/05/11 09:04:32;;;;;;;6.30;5.50;;;15.40;97.90;;;;;;6278561;28;20466;-67
2023/05/11 09:07:39;;;;;;;5.60;5.10;;;15.40;98.20;;;;;;6278604;28;20481;-67
2023/05/11 09:10:43;;;;;;;6.00;5.50;;;15.40;98.20;;;;;;6278740;28;20485;-67
2023/05/11 09:13:47;;;;;;;7.03;6.33;;;15.40;98.10;;;;;;6278193;28;20482;-67
2023/05/11 09:16:50;;;;;;;6.43;5.80;;;15.40;98.40;;;;;;6278859;28;20474;-67
2023/05/11 09:19:59;;;;;;;7.73;6.37;;;15.30;98.40;;;;;;6278401;28;20795;-68
2023/05/11 09:23:02;;;;;;;6.00;5.40;;;15.10;99.00;;;;;;6278591;28;20553;-67
2023/05/11 09:26:13;;;;;;;8.10;6.00;;;15.20;99.40;;;;;;6278005;28;20478;-67
2023/05/11 09:29:21;;;;;;;6.60;5.87;;;15.20;99.60;;;;;;6278138;28;20473;-67
2023/05/11 09:32:24;;;;;;;5.50;5.00;;;15.20;99.70;;;;;;6277314;28;20985;-67
2023/05/11 09:35:28;;;;;;;7.07;6.43;;;15.20;99.90;;;;;;6277509;28;20509;-67
2023/05/11 09:38:32;;;;;;;6.97;6.27;;;15.20;99.90;;;;;;6275988;28;20559;-62
2023/05/11 09:41:35;;;;;;;6.73;6.10;;;15.10;99.90;;;;;;6276341;28;20807;-63
2023/05/11 09:44:40;;;;;;;6.60;6.00;;;15.10;99.90;;;;;;6276112;28;20469;-63
2023/05/11 09:47:43;;;;;;;7.37;6.47;;;15.00;99.90;;;;;;6275775;28;20478;-63
2023/05/11 09:50:51;;;;;;;7.30;5.80;;;15.10;99.90;;;;;;6266602;28;20492;-63
2023/05/11 09:53:54;;;;;;;8.00;7.20;;;15.10;99.90;;;;;;6276882;28;20488;-63
2023/05/11 09:56:59;;;;;;;7.67;6.53;;;15.10;99.90;;;;;;6266079;28;20957;-69
2023/05/11 10:00:04;;;;;;;6.80;6.20;;;15.10;99.90;;;;;;6262831;28;20988;-65
2023/05/11 10:03:08;;;;;;;7.30;6.47;;;15.10;99.90;;;;;;6276960;28;20816;-65
2023/05/11 10:06:11;;;;;;;14.90;8.23;;;15.10;99.90;;;;;;6252187;28;20573;-67
2023/05/11 10:09:17;;;;;;;7.10;6.47;;;15.10;99.90;;;;;;6252066;28;20475;-64
2023/05/11 10:12:22;;;;;;;7.70;7.10;;;15.10;99.90;;;;;;6257512;28;20918;-65
2023/05/11 10:15:29;;;;;;;7.63;6.80;;;15.10;99.90;;;;;;6275982;28;20745;-64
2023/05/11 10:18:32;;;;;;;7.47;6.77;;;15.00;99.90;;;;;;6274491;28;20748;-63
2023/05/11 10:21:37;;;;;;;8.80;7.00;;;14.90;99.90;;;;;;6276851;28;20450;-64
2023/05/11 10:24:41;;;;;;;9.80;7.20;;;14.80;99.90;;;;;;6276563;28;20442;-61
2023/05/11 10:27:44;;;;;;;9.47;7.60;;;14.80;99.90;;;;;;6277316;28;20458;-63
2023/05/11 10:30:49;;;;;;;10.60;8.30;;;14.60;99.90;;;;;;6279745;28;20470;-63
2023/05/11 10:33:53;;;;;;;9.70;8.70;;;14.40;99.90;;;;;;6280526;28;20481;-65
2023/05/11 10:36:59;;;;;;;10.67;9.57;;;14.20;99.90;;;;;;6275978;28;20811;-64
2023/05/11 10:40:03;;;;;;;9.70;8.80;;;14.00;99.90;;;;;;6275154;28;20466;-63
2023/05/11 10:43:46;;;;;;;12.10;10.60;;;14.00;99.90;;;;;;6273989;28;20542;-63
2023/05/11 10:47:09;;;;;;;12.30;11.10;;;14.00;99.90;;;;;;6273406;28;20478;-64
2023/05/11 10:50:21;;;;;;;16.07;10.73;;;13.90;99.90;;;;;;6274942;28;20477;-64
2023/05/11 10:53:40;;;;;;;12.53;11.23;;;13.90;99.90;;;;;;6270598;28;21005;-64
2023/05/11 10:57:06;;;;;;;14.30;11.27;;;13.80;99.90;;;;;;6275607;28;20938;-63
2023/05/11 11:00:49;;;;;;;12.97;11.10;;;13.60;99.90;;;;;;6276018;28;20466;-63
2023/05/11 11:04:00;;;;;;;12.57;10.80;;;13.50;99.90;;;;;;6275286;28;20473;-63
2023/05/11 11:07:06;;;;;;;15.90;13.73;;;13.60;99.90;;;;;;6274321;28;20477;-64
2023/05/11 11:10:11;;;;;;;20.67;18.60;;;13.50;99.90;;;;;;6275088;28;20482;-65
2023/05/11 11:13:17;;;;;;;30.30;27.27;;;13.60;99.90;;;;;;6275248;28;20466;-63
2023/05/11 11:16:22;;;;;;;29.07;26.27;;;13.50;99.90;;;;;;6275768;28;20980;-64
2023/05/11 11:19:48;;;;;;;28.30;25.53;;;13.60;99.90;;;;;;6250651;28;20471;-64
2023/05/11 11:22:51;;;;;;;25.77;23.27;;;13.90;99.90;;;;;;6245117;28;20468;-65
2023/05/11 11:25:54;;;;;;;18.93;17.13;;;14.10;99.90;;;;;;6250481;28;20471;-66
2023/05/11 11:29:12;;;;;;;20.77;18.60;;;14.20;99.90;;;;;;6267527;28;20470;-66
2023/05/11 11:32:30;;;;;;;18.40;16.63;;;14.40;99.90;;;;;;6275224;28;20466;-66
2023/05/11 11:35:47;;;;;;;21.93;19.50;;;14.60;99.90;;;;;;6274591;28;20532;-67
2023/05/11 11:39:00;;;;;;;22.77;20.60;;;14.70;99.90;;;;;;6274811;28;20512;-66
2023/05/11 11:42:05;;;;;;;21.03;19.20;;;14.80;99.90;;;;;;6274323;28;20462;-66
2023/05/11 11:45:33;;;;;;;17.47;15.73;;;14.90;99.90;;;;;;6274124;28;20466;-67
2023/05/11 11:48:40;;;;;;;17.70;14.50;;;15.10;99.90;;;;;;6273995;28;20457;-66
2023/05/11 11:51:48;;;;;;;16.50;14.90;;;15.10;99.90;;;;;;6271571;28;20422;-67
2023/05/11 11:54:51;;;;;;;15.73;14.33;;;15.10;99.90;;;;;;6270033;28;20543;-65
2023/05/11 11:57:55;;;;;;;14.13;12.80;;;15.10;99.90;;;;;;6273548;28;20478;-67
2023/05/11 12:00:58;;;;;;;13.00;11.50;;;15.20;99.90;;;;;;6269198;28;20956;-64
2023/05/11 12:04:31;;;;;;;10.03;8.90;;;15.20;99.90;;;;;;6268214;28;20466;-65
2023/05/11 12:07:41;;;;;;;10.40;9.30;;;15.30;99.90;;;;;;6263968;28;20459;-63
2023/05/11 12:10:47;;;;;;;9.63;8.37;;;15.40;99.90;;;;;;6249527;28;20486;-65
2023/05/11 12:13:50;;;;;;;9.97;8.90;;;15.60;99.90;;;;;;6249830;28;20793;-63
2023/05/11 12:17:15;;;;;;;10.13;9.20;;;15.60;99.90;;;;;;6265507;28;20474;-64
2023/05/11 12:20:20;;;;;;;9.73;8.33;;;15.60;99.90;;;;;;6273613;28;20494;-62
2023/05/11 12:23:24;;;;;;;8.10;7.50;;;15.60;99.90;;;;;;6274061;28;20480;-62
2023/05/11 12:26:29;;;;;;;8.60;7.83;;;15.60;99.90;;;;;;6273808;28;20942;-67
2023/05/11 12:29:32;;;;;;;8.27;7.50;;;15.70;99.90;;;;;;6267653;28;20478;-62
2023/05/11 12:32:35;;;;;;;9.60;8.50;;;15.70;99.90;;;;;;6249097;28;20470;-63
2023/05/11 12:35:39;;;;;;;9.40;7.97;;;15.60;99.90;;;;;;6248801;28;20562;-64
2023/05/11 12:38:47;;;;;;;10.73;7.90;;;15.60;99.90;;;;;;6248996;28;20475;-64
2023/05/11 12:41:53;;;;;;;8.90;8.00;;;15.60;99.90;;;;;;6248752;28;20471;-64
2023/05/11 12:44:56;;;;;;;8.70;7.87;;;15.40;99.90;;;;;;6248796;28;20470;-64
2023/05/11 12:48:00;;;;;;;8.10;7.43;;;15.30;99.90;;;;;;6249076;28;20482;-62
2023/05/11 12:51:04;;;;;;;8.73;7.93;;;15.30;99.90;;;;;;6248964;28;20479;-62
2023/05/11 12:54:08;;;;;;;8.03;7.27;;;15.30;99.90;;;;;;6269291;28;20808;-62
2023/05/11 12:57:23;;;;;;;8.60;7.83;;;15.40;99.90;;;;;;6273053;28;20470;-62
2023/05/11 13:00:27;;;;;;;8.30;7.60;;;15.30;99.90;;;;;;6273147;28;20462;-64
2023/05/11 13:03:32;;;;;;;10.43;8.40;;;15.30;99.90;;;;;;6268171;28;20446;-63
2023/05/11 13:06:36;;;;;;;7.87;7.17;;;15.20;99.90;;;;;;6248535;28;20923;-63
2023/05/11 13:09:41;;;;;;;8.20;7.27;;;15.20;99.90;;;;;;6249141;28;20450;-63
2023/05/11 13:12:51;;;;;;;7.90;7.30;;;15.20;99.90;;;;;;6248650;28;22139;-61
2023/05/11 13:15:55;;;;;;;7.67;6.93;;;15.10;99.90;;;;;;6248742;28;20475;-64
2023/05/11 13:18:59;;;;;;;7.50;6.90;;;15.10;99.90;;;;;;6248662;28;20477;-64
2023/05/11 13:22:02;;;;;;;8.23;7.43;;;15.00;99.90;;;;;;6248988;28;20466;-64
2023/05/11 13:25:08;;;;;;;7.63;6.93;;;14.90;99.90;;;;;;6248260;28;20481;-62
2023/05/11 13:28:13;;;;;;;7.87;7.17;;;14.90;99.90;;;;;;6247879;28;20978;-64
2023/05/11 13:31:16;;;;;;;9.03;8.23;;;14.80;99.90;;;;;;6269941;28;20480;-65
2023/05/11 13:34:20;;;;;;;8.07;7.30;;;14.70;99.90;;;;;;6277693;28;20482;-63
2023/05/11 13:37:23;;;;;;;7.73;7.03;;;14.70;99.90;;;;;;6277747;28;20477;-63
2023/05/11 13:40:28;;;;;;;8.70;6.73;;;14.70;99.90;;;;;;6277301;28;20837;-63
2023/05/11 13:43:31;;;;;;;8.37;7.60;;;14.70;99.90;;;;;;6278668;28;20808;-65
2023/05/11 13:46:35;;;;;;;8.90;7.30;;;14.70;99.90;;;;;;6278949;28;20474;-63
2023/05/11 13:49:38;;;;;;;8.30;7.60;;;14.70;99.90;;;;;;6279548;28;20462;-62
2023/05/11 13:52:42;;;;;;;9.43;7.23;;;14.70;99.90;;;;;;6276862;28;20910;-62
2023/05/11 13:55:46;;;;;;;9.80;8.80;;;14.70;99.90;;;;;;6276928;28;20493;-64
2023/05/11 13:58:49;;;;;;;8.07;7.27;;;14.70;99.90;;;;;;6276960;28;20470;-64
2023/05/11 14:01:52;;;;;;;9.47;7.80;;;14.70;99.90;;;;;;6276928;28;20794;-63
2023/05/11 14:04:56;;;;;;;9.83;8.93;;;14.70;99.90;;;;;;6268239;28;20480;-64
2023/05/11 14:07:59;;;;;;;7.80;7.10;;;14.70;99.90;;;;;;6277117;28;20478;-62
2023/05/11 14:11:04;;;;;;;7.40;6.80;;;14.80;99.90;;;;;;6277070;28;20885;-65
2023/05/11 14:14:07;;;;;;;7.03;6.40;;;14.80;99.90;;;;;;6277020;28;20482;-63
2023/05/11 14:17:12;;;;;;;7.23;6.70;;;14.80;99.90;;;;;;6277235;28;20478;-63
2023/05/11 14:20:15;;;;;;;8.17;6.00;;;14.80;99.90;;;;;;6276982;28;20528;-62
2023/05/11 14:23:18;;;;;;;6.50;6.00;;;14.80;99.90;;;;;;6276528;28;20470;-62
2023/05/11 14:26:23;;;;;;;6.00;5.50;;;14.70;99.90;;;;;;6276569;28;20482;-62
2023/05/11 14:29:26;;;;;;;5.93;5.40;;;14.70;99.90;;;;;;6271044;28;20565;-64
2023/05/11 14:32:29;;;;;;;6.53;5.93;;;14.70;99.90;;;;;;6251985;28;20483;-64
2023/05/11 14:35:33;;;;;;;7.10;6.43;;;14.70;99.90;;;;;;6251466;28;20471;-64
2023/05/11 14:38:39;;;;;;;6.40;5.90;;;14.60;99.90;;;;;;6251668;28;20471;-64
2023/05/11 14:41:44;;;;;;;6.87;6.27;;;14.60;99.90;;;;;;6250758;28;20855;-62
2023/05/11 14:44:47;;;;;;;8.77;5.90;;;14.50;99.90;;;;;;6251930;28;20808;-63
2023/05/11 14:47:50;;;;;;;7.00;5.27;;;14.40;99.90;;;;;;6251935;28;20478;-63
2023/05/11 14:50:54;;;;;;;6.40;5.70;;;14.40;99.90;;;;;;6251865;28;20475;-62
2023/05/11 14:53:57;;;;;;;6.60;6.00;;;14.30;99.90;;;;;;6251155;28;20466;-62
2023/05/11 14:57:01;;;;;;;6.90;6.20;;;14.30;99.90;;;;;;6269998;28;20551;-62
2023/05/11 15:00:06;;;;;;;7.30;6.60;;;14.40;99.90;;;;;;6276733;28;20492;-63
2023/05/11 15:03:09;;;;;;;7.03;6.43;;;14.40;99.90;;;;;;6276461;28;20477;-63
2023/05/11 15:06:19;;;;;;;5.67;5.17;;;14.30;99.90;;;;;;6275368;28;20479;-63
2023/05/11 15:09:23;;;;;;;8.83;6.63;;;14.30;99.90;;;;;;6271277;28;20490;-62
2023/05/11 15:12:27;;;;;;;6.67;6.03;;;14.40;99.90;;;;;;6261892;28;20481;-63
2023/05/11 15:15:31;;;;;;;6.77;6.20;;;14.40;99.90;;;;;;6275497;28;20781;-63
2023/05/11 15:18:34;;;;;;;7.33;6.57;;;14.40;99.90;;;;;;6275807;28;20465;-64
2023/05/11 15:21:37;;;;;;;6.57;6.07;;;14.40;99.90;;;;;;6275820;28;20434;-64
2023/05/11 15:24:41;;;;;;;5.80;5.30;;;14.40;99.90;;;;;;6274462;28;20449;-61
2023/05/11 15:27:45;;;;;;;6.43;5.83;;;14.40;99.90;;;;;;6274000;28;20465;-61
2023/05/11 15:30:48;;;;;;;7.50;6.77;;;14.30;99.90;;;;;;6274625;28;20462;-60
2023/05/11 15:33:51;;;;;;;8.83;6.40;;;14.30;99.90;;;;;;6275855;28;20473;-61
2023/05/11 15:36:57;;;;;;;7.20;5.83;;;14.40;99.90;;;;;;6275057;28;20466;-63
2023/05/11 15:40:00;;;;;;;6.20;5.60;;;14.30;99.90;;;;;;6274561;28;20481;-64
2023/05/11 15:43:05;;;;;;;6.97;6.30;;;14.30;99.90;;;;;;6274993;28;20480;-63
2023/05/11 15:46:08;;;;;;;6.37;5.77;;;14.30;99.90;;;;;;6274795;28;20561;-64
2023/05/11 15:49:11;;;;;;;5.80;5.20;;;14.30;99.90;;;;;;6275310;28;20543;-63
2023/05/11 15:52:14;;;;;;;5.87;5.30;;;14.20;99.90;;;;;;6274129;28;20482;-63
2023/05/11 15:55:18;;;;;;;6.77;6.10;;;14.20;99.90;;;;;;6273937;28;20476;-65
2023/05/11 15:58:22;;;;;;;5.63;5.13;;;14.20;99.90;;;;;;6266212;28;20470;-65
2023/05/11 16:01:26;;;;;;;6.50;6.00;;;14.20;99.90;;;;;;6258229;28;20824;-65
2023/05/11 16:04:29;;;;;;;7.93;7.30;;;14.10;99.90;;;;;;6260897;28;21032;-66